sensor_id;sensor_type;location;lat;lon;timestamp;P1;durP1;ratioP1;P2;durP2;ratioP2
77136;SDS011;66102;48.542;-2.970;2023-05-07T00:00:52;15.65;;;7.32;;
77136;SDS011;66102;48.542;-2.970;2023-05-07T00:03:18;18.30;;;8.73;;
77136;SDS011;66102;48.542;-2.970;2023-05-07T00:05:45;20.77;;;8.30;;
77136;SDS011;66102;48.542;-2.970;2023-05-07T00:08:11;15.13;;;7.68;;
77136;SDS011;66102;48.542;-2.970;2023-05-07T00:10:37;21.23;;;9.00;;
77136;SDS011;66102;48.542;-2.970;2023-05-07T00:13:03;17.88;;;8.25;;
77136;SDS011;66102;48.542;-2.970;2023-05-07T00:15:29;18.20;;;8.23;;
77136;SDS011;66102;48.542;-2.970;2023-05-07T00:17:55;17.95;;;7.88;;
77136;SDS011;66102;48.542;-2.970;2023-05-07T00:20:23;16.55;;;7.53;;
77136;SDS011;66102;48.542;-2.970;2023-05-07T00:22:49;15.65;;;7.47;;
77136;SDS011;66102;48.542;-2.970;2023-05-07T00:25:15;17.55;;;7.45;;
77136;SDS011;66102;48.542;-2.970;2023-05-07T00:27:41;15.43;;;6.82;;
77136;SDS011;66102;48.542;-2.970;2023-05-07T00:30:07;14.88;;;7.85;;
77136;SDS011;66102;48.542;-2.970;2023-05-07T00:32:33;17.38;;;8.23;;
77136;SDS011;66102;48.542;-2.970;2023-05-07T00:35:00;19.30;;;8.23;;
77136;SDS011;66102;48.542;-2.970;2023-05-07T00:37:26;13.50;;;6.63;;
77136;SDS011;66102;48.542;-2.970;2023-05-07T00:39:52;12.43;;;6.45;;
77136;SDS011;66102;48.542;-2.970;2023-05-07T00:42:18;17.33;;;7.68;;
77136;SDS011;66102;48.542;-2.970;2023-05-07T00:44:44;15.82;;;7.88;;
77136;SDS011;66102;48.542;-2.970;2023-05-07T00:47:10;12.52;;;5.95;;
77136;SDS011;66102;48.542;-2.970;2023-05-07T00:52:03;14.93;;;7.78;;
77136;SDS011;66102;48.542;-2.970;2023-05-07T00:54:29;15.18;;;7.50;;
77136;SDS011;66102;48.542;-2.970;2023-05-07T00:56:55;14.85;;;6.57;;
77136;SDS011;66102;48.542;-2.970;2023-05-07T00:59:21;15.90;;;7.78;;
77136;SDS011;66102;48.542;-2.970;2023-05-07T01:01:47;16.73;;;8.05;;
77136;SDS011;66102;48.542;-2.970;2023-05-07T01:04:13;16.33;;;7.55;;
77136;SDS011;66102;48.542;-2.970;2023-05-07T01:06:39;18.42;;;7.38;;
77136;SDS011;66102;48.542;-2.970;2023-05-07T01:09:06;17.48;;;7.53;;
77136;SDS011;66102;48.542;-2.970;2023-05-07T01:11:34;18.15;;;7.55;;
77136;SDS011;66102;48.542;-2.970;2023-05-07T01:14:00;17.92;;;7.63;;
77136;SDS011;66102;48.542;-2.970;2023-05-07T01:16:26;20.00;;;6.68;;
77136;SDS011;66102;48.542;-2.970;2023-05-07T01:18:52;15.15;;;6.95;;
77136;SDS011;66102;48.542;-2.970;2023-05-07T01:21:18;20.25;;;7.55;;
77136;SDS011;66102;48.542;-2.970;2023-05-07T01:23:47;16.23;;;7.10;;
77136;SDS011;66102;48.542;-2.970;2023-05-07T01:26:13;13.88;;;6.20;;
77136;SDS011;66102;48.542;-2.970;2023-05-07T01:28:40;14.10;;;6.70;;
77136;SDS011;66102;48.542;-2.970;2023-05-07T01:31:06;16.80;;;6.22;;
77136;SDS011;66102;48.542;-2.970;2023-05-07T01:33:33;20.65;;;6.93;;
77136;SDS011;66102;48.542;-2.970;2023-05-07T01:36:00;15.43;;;6.65;;
77136;SDS011;66102;48.542;-2.970;2023-05-07T01:38:28;12.63;;;5.75;;
77136;SDS011;66102;48.542;-2.970;2023-05-07T01:40:55;17.77;;;6.70;;
77136;SDS011;66102;48.542;-2.970;2023-05-07T01:43:21;14.63;;;6.65;;
77136;SDS011;66102;48.542;-2.970;2023-05-07T01:45:47;16.20;;;6.88;;
77136;SDS011;66102;48.542;-2.970;2023-05-07T01:48:14;20.58;;;7.78;;
77136;SDS011;66102;48.542;-2.970;2023-05-07T01:50:41;16.50;;;7.28;;
77136;SDS011;66102;48.542;-2.970;2023-05-07T01:53:07;16.77;;;7.03;;
77136;SDS011;66102;48.542;-2.970;2023-05-07T01:55:33;14.98;;;7.25;;
77136;SDS011;66102;48.542;-2.970;2023-05-07T01:58:01;12.48;;;6.10;;
77136;SDS011;66102;48.542;-2.970;2023-05-07T02:00:27;15.60;;;6.45;;
77136;SDS011;66102;48.542;-2.970;2023-05-07T02:02:54;14.85;;;5.68;;
77136;SDS011;66102;48.542;-2.970;2023-05-07T02:05:20;12.35;;;5.97;;
77136;SDS011;66102;48.542;-2.970;2023-05-07T02:07:46;13.63;;;5.05;;
77136;SDS011;66102;48.542;-2.970;2023-05-07T02:10:12;10.85;;;5.80;;
77136;SDS011;66102;48.542;-2.970;2023-05-07T02:12:38;16.92;;;7.10;;
77136;SDS011;66102;48.542;-2.970;2023-05-07T02:15:04;12.32;;;5.43;;
77136;SDS011;66102;48.542;-2.970;2023-05-07T02:17:30;12.40;;;5.38;;
77136;SDS011;66102;48.542;-2.970;2023-05-07T02:19:58;13.05;;;6.05;;
77136;SDS011;66102;48.542;-2.970;2023-05-07T02:22:24;13.93;;;5.32;;
77136;SDS011;66102;48.542;-2.970;2023-05-07T02:24:50;11.60;;;5.18;;
77136;SDS011;66102;48.542;-2.970;2023-05-07T02:27:16;13.30;;;5.32;;
77136;SDS011;66102;48.542;-2.970;2023-05-07T02:29:42;12.60;;;5.75;;
77136;SDS011;66102;48.542;-2.970;2023-05-07T02:32:08;14.05;;;6.38;;
77136;SDS011;66102;48.542;-2.970;2023-05-07T02:34:35;10.73;;;5.15;;
77136;SDS011;66102;48.542;-2.970;2023-05-07T02:37:01;11.07;;;5.40;;
77136;SDS011;66102;48.542;-2.970;2023-05-07T02:39:27;12.55;;;5.80;;
77136;SDS011;66102;48.542;-2.970;2023-05-07T02:41:53;11.70;;;5.13;;
77136;SDS011;66102;48.542;-2.970;2023-05-07T02:44:19;11.65;;;5.72;;
77136;SDS011;66102;48.542;-2.970;2023-05-07T02:46:45;10.10;;;4.78;;
77136;SDS011;66102;48.542;-2.970;2023-05-07T02:49:11;10.40;;;5.22;;
77136;SDS011;66102;48.542;-2.970;2023-05-07T02:51:37;11.88;;;5.00;;
77136;SDS011;66102;48.542;-2.970;2023-05-07T02:54:03;8.75;;;4.47;;
77136;SDS011;66102;48.542;-2.970;2023-05-07T02:56:29;10.88;;;5.30;;
77136;SDS011;66102;48.542;-2.970;2023-05-07T02:58:55;12.13;;;4.78;;
77136;SDS011;66102;48.542;-2.970;2023-05-07T03:01:21;8.10;;;4.25;;
77136;SDS011;66102;48.542;-2.970;2023-05-07T03:03:47;12.63;;;6.70;;
77136;SDS011;66102;48.542;-2.970;2023-05-07T03:06:13;10.20;;;5.05;;
77136;SDS011;66102;48.542;-2.970;2023-05-07T03:08:40;10.45;;;4.95;;
77136;SDS011;66102;48.542;-2.970;2023-05-07T03:11:06;10.68;;;5.28;;
77136;SDS011;66102;48.542;-2.970;2023-05-07T03:13:32;10.05;;;5.45;;
77136;SDS011;66102;48.542;-2.970;2023-05-07T03:15:58;11.65;;;6.22;;
77136;SDS011;66102;48.542;-2.970;2023-05-07T03:18:24;12.98;;;6.28;;
77136;SDS011;66102;48.542;-2.970;2023-05-07T03:20:51;12.18;;;6.03;;
77136;SDS011;66102;48.542;-2.970;2023-05-07T03:23:17;12.23;;;6.07;;
77136;SDS011;66102;48.542;-2.970;2023-05-07T03:25:43;13.13;;;7.15;;
77136;SDS011;66102;48.542;-2.970;2023-05-07T03:28:09;13.90;;;7.25;;
77136;SDS011;66102;48.542;-2.970;2023-05-07T03:30:35;13.60;;;6.88;;
77136;SDS011;66102;48.542;-2.970;2023-05-07T03:33:01;14.32;;;7.43;;
77136;SDS011;66102;48.542;-2.970;2023-05-07T03:35:27;18.60;;;9.77;;
77136;SDS011;66102;48.542;-2.970;2023-05-07T03:37:53;13.55;;;6.93;;
77136;SDS011;66102;48.542;-2.970;2023-05-07T03:40:19;14.80;;;7.38;;
77136;SDS011;66102;48.542;-2.970;2023-05-07T03:42:45;13.95;;;7.40;;
77136;SDS011;66102;48.542;-2.970;2023-05-07T03:45:11;17.60;;;8.02;;
77136;SDS011;66102;48.542;-2.970;2023-05-07T03:47:37;14.65;;;7.85;;
77136;SDS011;66102;48.542;-2.970;2023-05-07T03:50:04;16.58;;;8.02;;
77136;SDS011;66102;48.542;-2.970;2023-05-07T03:52:30;15.75;;;8.65;;
77136;SDS011;66102;48.542;-2.970;2023-05-07T03:54:56;19.40;;;9.20;;
77136;SDS011;66102;48.542;-2.970;2023-05-07T03:57:22;20.63;;;9.27;;
77136;SDS011;66102;48.542;-2.970;2023-05-07T03:59:48;20.80;;;9.43;;
77136;SDS011;66102;48.542;-2.970;2023-05-07T04:02:14;19.40;;;9.60;;
77136;SDS011;66102;48.542;-2.970;2023-05-07T04:04:40;18.27;;;8.27;;
77136;SDS011;66102;48.542;-2.970;2023-05-07T04:07:06;17.73;;;8.40;;
77136;SDS011;66102;48.542;-2.970;2023-05-07T04:09:32;19.58;;;10.05;;
77136;SDS011;66102;48.542;-2.970;2023-05-07T04:11:58;17.80;;;8.93;;
77136;SDS011;66102;48.542;-2.970;2023-05-07T04:14:24;18.50;;;8.27;;
77136;SDS011;66102;48.542;-2.970;2023-05-07T04:16:50;18.70;;;9.40;;
77136;SDS011;66102;48.542;-2.970;2023-05-07T04:19:16;17.55;;;8.07;;
77136;SDS011;66102;48.542;-2.970;2023-05-07T04:21:42;20.98;;;9.40;;
77136;SDS011;66102;48.542;-2.970;2023-05-07T04:24:08;21.42;;;8.98;;
77136;SDS011;66102;48.542;-2.970;2023-05-07T04:26:35;18.85;;;8.63;;
77136;SDS011;66102;48.542;-2.970;2023-05-07T04:29:01;21.10;;;9.18;;
77136;SDS011;66102;48.542;-2.970;2023-05-07T04:31:27;21.50;;;9.00;;
77136;SDS011;66102;48.542;-2.970;2023-05-07T04:33:53;23.10;;;8.85;;
77136;SDS011;66102;48.542;-2.970;2023-05-07T04:36:19;20.17;;;8.65;;
77136;SDS011;66102;48.542;-2.970;2023-05-07T04:38:46;20.77;;;7.97;;
77136;SDS011;66102;48.542;-2.970;2023-05-07T04:41:12;15.25;;;6.05;;
77136;SDS011;66102;48.542;-2.970;2023-05-07T04:43:38;18.08;;;6.57;;
77136;SDS011;66102;48.542;-2.970;2023-05-07T04:46:05;17.85;;;7.13;;
77136;SDS011;66102;48.542;-2.970;2023-05-07T04:48:31;21.70;;;7.25;;
77136;SDS011;66102;48.542;-2.970;2023-05-07T04:50:57;20.65;;;7.28;;
77136;SDS011;66102;48.542;-2.970;2023-05-07T04:53:23;17.73;;;6.63;;
77136;SDS011;66102;48.542;-2.970;2023-05-07T04:55:54;18.40;;;7.13;;
77136;SDS011;66102;48.542;-2.970;2023-05-07T04:58:20;18.50;;;6.88;;
77136;SDS011;66102;48.542;-2.970;2023-05-07T05:00:46;20.45;;;7.95;;
77136;SDS011;66102;48.542;-2.970;2023-05-07T05:03:12;20.45;;;7.65;;
77136;SDS011;66102;48.542;-2.970;2023-05-07T05:05:38;21.20;;;7.35;;
77136;SDS011;66102;48.542;-2.970;2023-05-07T05:08:04;19.08;;;7.47;;
77136;SDS011;66102;48.542;-2.970;2023-05-07T05:10:30;20.60;;;7.53;;
77136;SDS011;66102;48.542;-2.970;2023-05-07T05:12:56;18.67;;;6.47;;
77136;SDS011;66102;48.542;-2.970;2023-05-07T05:15:22;19.90;;;7.18;;
77136;SDS011;66102;48.542;-2.970;2023-05-07T05:17:49;20.00;;;6.70;;
77136;SDS011;66102;48.542;-2.970;2023-05-07T05:20:15;21.52;;;8.45;;
77136;SDS011;66102;48.542;-2.970;2023-05-07T05:22:41;20.23;;;7.20;;
77136;SDS011;66102;48.542;-2.970;2023-05-07T05:25:08;21.38;;;7.15;;
77136;SDS011;66102;48.542;-2.970;2023-05-07T05:27:34;19.67;;;7.28;;
77136;SDS011;66102;48.542;-2.970;2023-05-07T05:30:01;22.13;;;7.47;;
77136;SDS011;66102;48.542;-2.970;2023-05-07T05:32:27;22.30;;;7.50;;
77136;SDS011;66102;48.542;-2.970;2023-05-07T05:34:53;21.45;;;8.27;;
77136;SDS011;66102;48.542;-2.970;2023-05-07T05:37:19;22.15;;;7.05;;
77136;SDS011;66102;48.542;-2.970;2023-05-07T05:39:45;27.48;;;8.50;;
77136;SDS011;66102;48.542;-2.970;2023-05-07T05:42:11;20.75;;;7.55;;
77136;SDS011;66102;48.542;-2.970;2023-05-07T05:44:37;22.80;;;6.95;;
77136;SDS011;66102;48.542;-2.970;2023-05-07T05:47:03;21.95;;;7.40;;
77136;SDS011;66102;48.542;-2.970;2023-05-07T05:49:30;17.02;;;6.93;;
77136;SDS011;66102;48.542;-2.970;2023-05-07T05:51:56;16.80;;;7.60;;
77136;SDS011;66102;48.542;-2.970;2023-05-07T05:54:22;18.05;;;7.00;;
77136;SDS011;66102;48.542;-2.970;2023-05-07T05:56:48;20.48;;;7.63;;
77136;SDS011;66102;48.542;-2.970;2023-05-07T05:59:14;19.17;;;8.27;;
77136;SDS011;66102;48.542;-2.970;2023-05-07T06:01:40;23.13;;;8.43;;
77136;SDS011;66102;48.542;-2.970;2023-05-07T06:04:06;19.30;;;7.55;;
77136;SDS011;66102;48.542;-2.970;2023-05-07T06:06:32;17.10;;;7.43;;
77136;SDS011;66102;48.542;-2.970;2023-05-07T06:08:58;19.40;;;7.85;;
77136;SDS011;66102;48.542;-2.970;2023-05-07T06:11:24;20.17;;;7.43;;
77136;SDS011;66102;48.542;-2.970;2023-05-07T06:13:51;20.60;;;8.45;;
77136;SDS011;66102;48.542;-2.970;2023-05-07T06:16:17;20.83;;;8.85;;
77136;SDS011;66102;48.542;-2.970;2023-05-07T06:18:43;20.02;;;8.60;;
77136;SDS011;66102;48.542;-2.970;2023-05-07T06:21:11;17.95;;;7.60;;
77136;SDS011;66102;48.542;-2.970;2023-05-07T06:23:37;18.77;;;8.55;;
77136;SDS011;66102;48.542;-2.970;2023-05-07T06:26:03;21.30;;;8.65;;
77136;SDS011;66102;48.542;-2.970;2023-05-07T06:28:29;17.38;;;7.85;;
77136;SDS011;66102;48.542;-2.970;2023-05-07T06:31:16;16.92;;;7.82;;
77136;SDS011;66102;48.542;-2.970;2023-05-07T06:33:45;16.63;;;7.63;;
77136;SDS011;66102;48.542;-2.970;2023-05-07T06:36:11;15.45;;;7.30;;
77136;SDS011;66102;48.542;-2.970;2023-05-07T06:38:37;21.42;;;8.90;;
77136;SDS011;66102;48.542;-2.970;2023-05-07T06:41:05;18.20;;;8.57;;
77136;SDS011;66102;48.542;-2.970;2023-05-07T06:43:31;16.15;;;7.43;;
77136;SDS011;66102;48.542;-2.970;2023-05-07T06:45:57;15.80;;;7.38;;
77136;SDS011;66102;48.542;-2.970;2023-05-07T06:48:23;14.63;;;6.80;;
77136;SDS011;66102;48.542;-2.970;2023-05-07T06:50:49;16.00;;;7.82;;
77136;SDS011;66102;48.542;-2.970;2023-05-07T06:53:15;17.70;;;8.02;;
77136;SDS011;66102;48.542;-2.970;2023-05-07T06:55:41;24.30;;;9.48;;
77136;SDS011;66102;48.542;-2.970;2023-05-07T06:58:07;18.70;;;9.20;;
77136;SDS011;66102;48.542;-2.970;2023-05-07T07:00:33;26.75;;;11.02;;
77136;SDS011;66102;48.542;-2.970;2023-05-07T07:03:00;22.05;;;9.40;;
77136;SDS011;66102;48.542;-2.970;2023-05-07T07:05:26;19.83;;;8.90;;
77136;SDS011;66102;48.542;-2.970;2023-05-07T07:07:52;24.40;;;10.02;;
77136;SDS011;66102;48.542;-2.970;2023-05-07T07:10:19;24.20;;;9.65;;
77136;SDS011;66102;48.542;-2.970;2023-05-07T07:12:45;18.13;;;8.38;;
77136;SDS011;66102;48.542;-2.970;2023-05-07T07:15:11;20.63;;;8.40;;
77136;SDS011;66102;48.542;-2.970;2023-05-07T07:17:37;21.73;;;7.80;;
77136;SDS011;66102;48.542;-2.970;2023-05-07T07:20:03;21.08;;;8.75;;
77136;SDS011;66102;48.542;-2.970;2023-05-07T07:22:29;21.67;;;9.63;;
77136;SDS011;66102;48.542;-2.970;2023-05-07T07:24:55;19.77;;;7.85;;
77136;SDS011;66102;48.542;-2.970;2023-05-07T07:27:21;20.38;;;8.60;;
77136;SDS011;66102;48.542;-2.970;2023-05-07T07:29:47;25.13;;;9.85;;
77136;SDS011;66102;48.542;-2.970;2023-05-07T07:32:13;23.83;;;8.80;;
77136;SDS011;66102;48.542;-2.970;2023-05-07T07:34:40;22.30;;;8.93;;
77136;SDS011;66102;48.542;-2.970;2023-05-07T07:37:06;19.13;;;7.85;;
77136;SDS011;66102;48.542;-2.970;2023-05-07T07:39:32;18.60;;;8.27;;
77136;SDS011;66102;48.542;-2.970;2023-05-07T07:41:58;21.27;;;8.88;;
77136;SDS011;66102;48.542;-2.970;2023-05-07T07:44:25;21.60;;;8.27;;
77136;SDS011;66102;48.542;-2.970;2023-05-07T07:46:51;21.88;;;8.73;;
77136;SDS011;66102;48.542;-2.970;2023-05-07T07:49:17;19.15;;;8.52;;
77136;SDS011;66102;48.542;-2.970;2023-05-07T07:51:43;21.95;;;8.02;;
77136;SDS011;66102;48.542;-2.970;2023-05-07T07:54:09;20.35;;;8.23;;
77136;SDS011;66102;48.542;-2.970;2023-05-07T07:56:35;25.17;;;9.35;;
77136;SDS011;66102;48.542;-2.970;2023-05-07T07:59:01;23.05;;;9.18;;
77136;SDS011;66102;48.542;-2.970;2023-05-07T08:01:29;21.73;;;9.57;;
77136;SDS011;66102;48.542;-2.970;2023-05-07T08:03:55;21.02;;;8.52;;
77136;SDS011;66102;48.542;-2.970;2023-05-07T08:06:23;21.65;;;8.77;;
77136;SDS011;66102;48.542;-2.970;2023-05-07T08:08:50;20.05;;;9.00;;
77136;SDS011;66102;48.542;-2.970;2023-05-07T08:11:16;20.30;;;7.72;;
77136;SDS011;66102;48.542;-2.970;2023-05-07T08:13:43;22.25;;;8.40;;
77136;SDS011;66102;48.542;-2.970;2023-05-07T08:16:10;18.05;;;8.13;;
77136;SDS011;66102;48.542;-2.970;2023-05-07T08:18:36;22.02;;;8.57;;
77136;SDS011;66102;48.542;-2.970;2023-05-07T08:21:02;22.08;;;8.80;;
77136;SDS011;66102;48.542;-2.970;2023-05-07T08:23:28;21.63;;;9.32;;
77136;SDS011;66102;48.542;-2.970;2023-05-07T08:25:55;23.73;;;9.25;;
77136;SDS011;66102;48.542;-2.970;2023-05-07T08:28:21;22.23;;;8.70;;
77136;SDS011;66102;48.542;-2.970;2023-05-07T08:30:49;24.67;;;9.02;;
77136;SDS011;66102;48.542;-2.970;2023-05-07T08:33:15;26.92;;;9.05;;
77136;SDS011;66102;48.542;-2.970;2023-05-07T08:35:41;30.98;;;10.73;;
77136;SDS011;66102;48.542;-2.970;2023-05-07T08:38:07;27.45;;;10.55;;
77136;SDS011;66102;48.542;-2.970;2023-05-07T08:40:36;20.48;;;8.10;;
77136;SDS011;66102;48.542;-2.970;2023-05-07T08:43:03;24.55;;;8.77;;
77136;SDS011;66102;48.542;-2.970;2023-05-07T08:45:30;19.10;;;8.50;;
77136;SDS011;66102;48.542;-2.970;2023-05-07T08:47:58;23.35;;;8.85;;
77136;SDS011;66102;48.542;-2.970;2023-05-07T08:50:25;20.42;;;8.80;;
77136;SDS011;66102;48.542;-2.970;2023-05-07T08:52:51;21.85;;;9.93;;
77136;SDS011;66102;48.542;-2.970;2023-05-07T08:55:17;23.63;;;9.23;;
77136;SDS011;66102;48.542;-2.970;2023-05-07T08:57:44;19.25;;;7.97;;
77136;SDS011;66102;48.542;-2.970;2023-05-07T09:00:10;19.00;;;8.27;;
77136;SDS011;66102;48.542;-2.970;2023-05-07T09:02:36;19.80;;;8.30;;
77136;SDS011;66102;48.542;-2.970;2023-05-07T09:05:03;18.23;;;7.63;;
77136;SDS011;66102;48.542;-2.970;2023-05-07T09:07:30;19.75;;;7.95;;
77136;SDS011;66102;48.542;-2.970;2023-05-07T09:09:56;19.88;;;7.38;;
77136;SDS011;66102;48.542;-2.970;2023-05-07T09:12:22;14.80;;;7.82;;
77136;SDS011;66102;48.542;-2.970;2023-05-07T09:14:49;19.45;;;7.68;;
77136;SDS011;66102;48.542;-2.970;2023-05-07T09:17:15;17.05;;;7.93;;
77136;SDS011;66102;48.542;-2.970;2023-05-07T09:19:43;18.17;;;8.15;;
77136;SDS011;66102;48.542;-2.970;2023-05-07T09:22:10;16.27;;;8.05;;
77136;SDS011;66102;48.542;-2.970;2023-05-07T09:24:36;20.90;;;8.95;;
77136;SDS011;66102;48.542;-2.970;2023-05-07T09:27:06;17.48;;;7.03;;
77136;SDS011;66102;48.542;-2.970;2023-05-07T09:29:33;16.45;;;7.25;;
77136;SDS011;66102;48.542;-2.970;2023-05-07T09:32:05;13.82;;;5.88;;
77136;SDS011;66102;48.542;-2.970;2023-05-07T09:34:31;15.60;;;6.95;;
77136;SDS011;66102;48.542;-2.970;2023-05-07T09:37:02;13.18;;;6.30;;
77136;SDS011;66102;48.542;-2.970;2023-05-07T09:42:06;13.73;;;5.80;;
77136;SDS011;66102;48.542;-2.970;2023-05-07T09:44:33;11.40;;;5.18;;
77136;SDS011;66102;48.542;-2.970;2023-05-07T09:46:59;10.85;;;4.93;;
77136;SDS011;66102;48.542;-2.970;2023-05-07T09:49:27;12.45;;;4.90;;
77136;SDS011;66102;48.542;-2.970;2023-05-07T09:55:04;13.05;;;4.93;;
77136;SDS011;66102;48.542;-2.970;2023-05-07T09:57:31;9.35;;;4.65;;
77136;SDS011;66102;48.542;-2.970;2023-05-07T09:59:57;8.40;;;4.07;;
77136;SDS011;66102;48.542;-2.970;2023-05-07T10:02:25;11.60;;;4.30;;
77136;SDS011;66102;48.542;-2.970;2023-05-07T10:04:52;12.00;;;5.25;;
77136;SDS011;66102;48.542;-2.970;2023-05-07T10:07:18;10.07;;;3.83;;
77136;SDS011;66102;48.542;-2.970;2023-05-07T10:09:44;9.15;;;4.00;;
77136;SDS011;66102;48.542;-2.970;2023-05-07T10:12:11;5.93;;;2.85;;
77136;SDS011;66102;48.542;-2.970;2023-05-07T10:14:37;9.50;;;3.30;;
77136;SDS011;66102;48.542;-2.970;2023-05-07T10:17:04;9.80;;;3.67;;
77136;SDS011;66102;48.542;-2.970;2023-05-07T10:19:30;7.28;;;3.25;;
77136;SDS011;66102;48.542;-2.970;2023-05-07T10:21:59;6.32;;;2.42;;
77136;SDS011;66102;48.542;-2.970;2023-05-07T10:24:33;6.60;;;3.05;;
77136;SDS011;66102;48.542;-2.970;2023-05-07T10:27:00;7.28;;;2.65;;
77136;SDS011;66102;48.542;-2.970;2023-05-07T10:34:29;7.97;;;2.28;;
77136;SDS011;66102;48.542;-2.970;2023-05-07T10:36:58;6.63;;;2.70;;
77136;SDS011;66102;48.542;-2.970;2023-05-07T10:39:24;6.78;;;2.78;;
77136;SDS011;66102;48.542;-2.970;2023-05-07T10:41:50;6.43;;;2.78;;
77136;SDS011;66102;48.542;-2.970;2023-05-07T10:44:26;6.13;;;2.30;;
77136;SDS011;66102;48.542;-2.970;2023-05-07T10:52:18;7.75;;;3.17;;
77136;SDS011;66102;48.542;-2.970;2023-05-07T10:54:44;8.07;;;2.65;;
77136;SDS011;66102;48.542;-2.970;2023-05-07T10:59:56;8.30;;;3.10;;
77136;SDS011;66102;48.542;-2.970;2023-05-07T11:02:22;7.00;;;2.25;;
77136;SDS011;66102;48.542;-2.970;2023-05-07T11:07:32;7.10;;;2.70;;
77136;SDS011;66102;48.542;-2.970;2023-05-07T11:09:59;7.43;;;3.20;;
77136;SDS011;66102;48.542;-2.970;2023-05-07T11:15:05;8.38;;;3.38;;
77136;SDS011;66102;48.542;-2.970;2023-05-07T11:17:31;8.77;;;3.50;;
77136;SDS011;66102;48.542;-2.970;2023-05-07T11:19:59;10.73;;;3.45;;
77136;SDS011;66102;48.542;-2.970;2023-05-07T11:25:04;7.70;;;3.47;;
77136;SDS011;66102;48.542;-2.970;2023-05-07T11:27:31;7.90;;;3.75;;
77136;SDS011;66102;48.542;-2.970;2023-05-07T11:29:57;7.85;;;3.33;;
77136;SDS011;66102;48.542;-2.970;2023-05-07T11:32:27;7.43;;;3.22;;
77136;SDS011;66102;48.542;-2.970;2023-05-07T11:34:53;7.72;;;3.17;;
77136;SDS011;66102;48.542;-2.970;2023-05-07T11:37:20;9.48;;;3.13;;
77136;SDS011;66102;48.542;-2.970;2023-05-07T11:39:46;9.40;;;3.20;;
77136;SDS011;66102;48.542;-2.970;2023-05-07T11:42:31;10.05;;;3.10;;
77136;SDS011;66102;48.542;-2.970;2023-05-07T11:44:58;8.15;;;2.80;;
77136;SDS011;66102;48.542;-2.970;2023-05-07T11:47:24;8.07;;;3.05;;
77136;SDS011;66102;48.542;-2.970;2023-05-07T11:49:52;8.57;;;3.10;;
77136;SDS011;66102;48.542;-2.970;2023-05-07T11:52:18;7.90;;;2.60;;
77136;SDS011;66102;48.542;-2.970;2023-05-07T11:54:51;6.43;;;2.88;;
77136;SDS011;66102;48.542;-2.970;2023-05-07T11:57:18;8.20;;;3.03;;
77136;SDS011;66102;48.542;-2.970;2023-05-07T11:59:44;5.18;;;2.28;;
77136;SDS011;66102;48.542;-2.970;2023-05-07T12:02:13;6.00;;;2.50;;
77136;SDS011;66102;48.542;-2.970;2023-05-07T12:04:40;7.30;;;2.50;;
77136;SDS011;66102;48.542;-2.970;2023-05-07T12:07:10;7.25;;;2.63;;
77136;SDS011;66102;48.542;-2.970;2023-05-07T12:09:37;8.43;;;2.40;;
77136;SDS011;66102;48.542;-2.970;2023-05-07T12:12:03;8.00;;;2.88;;
77136;SDS011;66102;48.542;-2.970;2023-05-07T12:14:30;6.30;;;2.15;;
77136;SDS011;66102;48.542;-2.970;2023-05-07T12:16:56;7.15;;;2.72;;
77136;SDS011;66102;48.542;-2.970;2023-05-07T12:19:22;6.15;;;2.50;;
77136;SDS011;66102;48.542;-2.970;2023-05-07T12:21:48;8.32;;;2.83;;
77136;SDS011;66102;48.542;-2.970;2023-05-07T12:24:14;8.23;;;3.38;;
77136;SDS011;66102;48.542;-2.970;2023-05-07T12:26:40;9.40;;;3.70;;
77136;SDS011;66102;48.542;-2.970;2023-05-07T12:29:07;9.15;;;3.85;;
77136;SDS011;66102;48.542;-2.970;2023-05-07T12:31:33;10.73;;;4.45;;
77136;SDS011;66102;48.542;-2.970;2023-05-07T12:33:59;9.15;;;3.47;;
77136;SDS011;66102;48.542;-2.970;2023-05-07T12:36:25;12.73;;;4.60;;
77136;SDS011;66102;48.542;-2.970;2023-05-07T12:38:51;8.38;;;3.55;;
77136;SDS011;66102;48.542;-2.970;2023-05-07T12:41:18;11.90;;;3.80;;
77136;SDS011;66102;48.542;-2.970;2023-05-07T12:43:44;8.88;;;4.22;;
77136;SDS011;66102;48.542;-2.970;2023-05-07T12:46:11;9.73;;;4.68;;
77136;SDS011;66102;48.542;-2.970;2023-05-07T12:48:43;14.63;;;4.35;;
77136;SDS011;66102;48.542;-2.970;2023-05-07T12:51:13;8.57;;;3.50;;
77136;SDS011;66102;48.542;-2.970;2023-05-07T12:53:40;9.00;;;3.42;;
77136;SDS011;66102;48.542;-2.970;2023-05-07T12:56:07;9.25;;;3.78;;
77136;SDS011;66102;48.542;-2.970;2023-05-07T12:58:33;8.38;;;3.38;;
77136;SDS011;66102;48.542;-2.970;2023-05-07T13:01:00;7.85;;;3.53;;
77136;SDS011;66102;48.542;-2.970;2023-05-07T13:03:28;10.80;;;3.83;;
77136;SDS011;66102;48.542;-2.970;2023-05-07T13:05:55;8.20;;;3.47;;
77136;SDS011;66102;48.542;-2.970;2023-05-07T13:08:25;10.93;;;4.05;;
77136;SDS011;66102;48.542;-2.970;2023-05-07T13:10:52;10.00;;;3.58;;
77136;SDS011;66102;48.542;-2.970;2023-05-07T13:13:18;9.73;;;3.25;;
77136;SDS011;66102;48.542;-2.970;2023-05-07T13:15:45;7.72;;;3.75;;
77136;SDS011;66102;48.542;-2.970;2023-05-07T13:18:11;8.65;;;2.97;;
77136;SDS011;66102;48.542;-2.970;2023-05-07T13:20:37;9.95;;;3.03;;
77136;SDS011;66102;48.542;-2.970;2023-05-07T13:23:03;8.57;;;3.10;;
77136;SDS011;66102;48.542;-2.970;2023-05-07T13:25:29;11.00;;;5.05;;
77136;SDS011;66102;48.542;-2.970;2023-05-07T13:27:59;17.88;;;6.30;;
77136;SDS011;66102;48.542;-2.970;2023-05-07T13:30:25;14.75;;;5.20;;
77136;SDS011;66102;48.542;-2.970;2023-05-07T13:32:51;18.55;;;5.63;;
77136;SDS011;66102;48.542;-2.970;2023-05-07T13:35:18;15.70;;;6.50;;
77136;SDS011;66102;48.542;-2.970;2023-05-07T13:37:44;18.63;;;6.68;;
77136;SDS011;66102;48.542;-2.970;2023-05-07T13:40:10;17.10;;;5.78;;
77136;SDS011;66102;48.542;-2.970;2023-05-07T13:42:36;16.48;;;5.15;;
77136;SDS011;66102;48.542;-2.970;2023-05-07T13:45:02;13.82;;;5.75;;
77136;SDS011;66102;48.542;-2.970;2023-05-07T13:47:30;14.07;;;5.78;;
77136;SDS011;66102;48.542;-2.970;2023-05-07T13:49:56;13.68;;;5.70;;
77136;SDS011;66102;48.542;-2.970;2023-05-07T13:52:22;17.35;;;6.78;;
77136;SDS011;66102;48.542;-2.970;2023-05-07T13:54:48;18.90;;;7.03;;
77136;SDS011;66102;48.542;-2.970;2023-05-07T13:57:14;21.00;;;7.63;;
77136;SDS011;66102;48.542;-2.970;2023-05-07T13:59:40;20.27;;;8.02;;
77136;SDS011;66102;48.542;-2.970;2023-05-07T14:02:06;18.27;;;7.78;;
77136;SDS011;66102;48.542;-2.970;2023-05-07T14:04:34;19.95;;;8.15;;
77136;SDS011;66102;48.542;-2.970;2023-05-07T14:07:00;18.45;;;8.07;;
77136;SDS011;66102;48.542;-2.970;2023-05-07T14:09:26;18.90;;;8.15;;
77136;SDS011;66102;48.542;-2.970;2023-05-07T14:11:52;21.88;;;8.50;;
77136;SDS011;66102;48.542;-2.970;2023-05-07T14:14:18;23.85;;;8.27;;
77136;SDS011;66102;48.542;-2.970;2023-05-07T14:16:44;17.42;;;7.38;;
77136;SDS011;66102;48.542;-2.970;2023-05-07T14:19:11;25.85;;;9.00;;
77136;SDS011;66102;48.542;-2.970;2023-05-07T14:21:37;23.38;;;8.95;;
77136;SDS011;66102;48.542;-2.970;2023-05-07T14:24:03;19.33;;;8.60;;
77136;SDS011;66102;48.542;-2.970;2023-05-07T14:26:29;17.33;;;7.85;;
77136;SDS011;66102;48.542;-2.970;2023-05-07T14:28:55;21.40;;;7.75;;
77136;SDS011;66102;48.542;-2.970;2023-05-07T14:31:23;16.55;;;8.02;;
77136;SDS011;66102;48.542;-2.970;2023-05-07T14:33:49;21.38;;;9.40;;
77136;SDS011;66102;48.542;-2.970;2023-05-07T14:36:16;22.92;;;8.88;;
77136;SDS011;66102;48.542;-2.970;2023-05-07T14:38:42;19.42;;;8.02;;
77136;SDS011;66102;48.542;-2.970;2023-05-07T14:41:08;18.42;;;8.32;;
77136;SDS011;66102;48.542;-2.970;2023-05-07T14:43:34;16.58;;;7.32;;
77136;SDS011;66102;48.542;-2.970;2023-05-07T14:46:00;17.75;;;7.75;;
77136;SDS011;66102;48.542;-2.970;2023-05-07T14:48:26;19.92;;;10.07;;